sensor_id;sensor_type;location;lat;lon;timestamp;pressure;altitude;pressure_sealevel;temperature;humidity
64243;BME280;50573;51.512;5.386;2023-08-30T00:06:32;167908.31;;;12.74;100.00
64243;BME280;50573;51.512;5.386;2023-08-30T00:16:35;167896.34;;;12.70;100.00
64243;BME280;50573;51.512;5.386;2023-08-30T00:26:41;167897.69;;;12.70;100.00
64243;BME280;50573;51.512;5.386;2023-08-30T00:36:44;167893.72;;;12.69;100.00
64243;BME280;50573;51.512;5.386;2023-08-30T00:46:49;167873.81;;;12.61;100.00
64243;BME280;50573;51.512;5.386;2023-08-30T00:56:52;167873.81;;;12.61;100.00
64243;BME280;50573;51.512;5.386;2023-08-30T01:06:58;167852.59;;;12.53;100.00
64243;BME280;50573;51.512;5.386;2023-08-30T01:17:01;167836.63;;;12.47;100.00
64243;BME280;50573;51.512;5.386;2023-08-30T01:27:11;167818.09;;;12.40;100.00
64243;BME280;50573;51.512;5.386;2023-08-30T01:37:15;167804.81;;;12.35;100.00
64243;BME280;50573;51.512;5.386;2023-08-30T01:47:19;167759.69;;;12.18;100.00
64243;BME280;50573;51.512;5.386;2023-08-30T01:57:23;167725.19;;;12.05;100.00
64243;BME280;50573;51.512;5.386;2023-08-30T02:07:33;167701.31;;;11.96;100.00
64243;BME280;50573;51.512;5.386;2023-08-30T02:17:40;167688.06;;;11.91;100.00
64243;BME280;50573;51.512;5.386;2023-08-30T02:27:45;167696.00;;;11.94;100.00
64243;BME280;50573;51.512;5.386;2023-08-30T02:37:48;167725.19;;;12.05;100.00
64243;BME280;50573;51.512;5.386;2023-08-30T02:47:55;167780.91;;;12.26;100.00
64243;BME280;50573;51.512;5.386;2023-08-30T02:57:58;167861.84;;;12.56;100.00
64243;BME280;50573;51.512;5.386;2023-08-30T03:08:04;167941.50;;;12.87;100.00
64243;BME280;50573;51.512;5.386;2023-08-30T03:18:07;167999.94;;;13.09;100.00
64243;BME280;50573;51.512;5.386;2023-08-30T03:28:12;168030.47;;;13.20;100.00
64243;BME280;50573;51.512;5.386;2023-08-30T03:38:15;168043.75;;;13.25;100.00
64243;BME280;50573;51.512;5.386;2023-08-30T03:48:20;168051.69;;;13.28;100.00
64243;BME280;50573;51.512;5.386;2023-08-30T03:58:23;168090.22;;;13.43;100.00
64243;BME280;50573;51.512;5.386;2023-08-30T04:08:28;168071.59;;;13.36;100.00
64243;BME280;50573;51.512;5.386;2023-08-30T04:18:31;168022.50;;;13.17;100.00
64243;BME280;50573;51.512;5.386;2023-08-30T04:28:35;168027.81;;;13.19;100.00
64243;BME280;50573;51.512;5.386;2023-08-30T04:38:39;168080.91;;;13.39;100.00
64243;BME280;50573;51.512;5.386;2023-08-30T04:49:02;168126.06;;;13.56;100.00
64243;BME280;50573;51.512;5.386;2023-08-30T04:59:07;168165.88;;;13.71;100.00
64243;BME280;50573;51.512;5.386;2023-08-30T05:09:15;168189.81;;;13.80;100.00
64243;BME280;50573;51.512;5.386;2023-08-30T05:19:18;168226.97;;;13.94;100.00
64243;BME280;50573;51.512;5.386;2023-08-30T05:29:23;168261.50;;;14.08;100.00
64243;BME280;50573;51.512;5.386;2023-08-30T05:39:26;168317.34;;;14.29;100.00
64243;BME280;50573;51.512;5.386;2023-08-30T05:49:33;168350.56;;;14.41;100.00
64243;BME280;50573;51.512;5.386;2023-08-30T05:59:36;168401.06;;;14.60;100.00
64243;BME280;50573;51.512;5.386;2023-08-30T06:09:41;168472.81;;;14.87;100.00
64243;BME280;50573;51.512;5.386;2023-08-30T06:19:44;168491.44;;;14.94;100.00
64243;BME280;50573;51.512;5.386;2023-08-30T06:29:49;168486.13;;;14.92;100.00
64243;BME280;50573;51.512;5.386;2023-08-30T06:39:52;168486.13;;;14.92;100.00
64243;BME280;50573;51.512;5.386;2023-08-30T06:49:59;168460.88;;;14.83;100.00
64243;BME280;50573;51.512;5.386;2023-08-30T07:00:06;168417.00;;;14.66;100.00
64243;BME280;50573;51.512;5.386;2023-08-30T07:10:12;168335.97;;;14.36;100.00
64243;BME280;50573;51.512;5.386;2023-08-30T07:20:22;168286.75;;;14.17;100.00
64243;BME280;50573;51.512;5.386;2023-08-30T07:30:35;168288.09;;;14.18;100.00
64243;BME280;50573;51.512;5.386;2023-08-30T07:40:39;168265.50;;;14.09;100.00
64243;BME280;50573;51.512;5.386;2023-08-30T07:50:47;168288.09;;;14.18;100.00
64243;BME280;50573;51.512;5.386;2023-08-30T08:00:58;168285.44;;;14.17;100.00
64243;BME280;50573;51.512;5.386;2023-08-30T08:11:06;168333.28;;;14.35;100.00
64243;BME280;50573;51.512;5.386;2023-08-30T08:21:15;168333.28;;;14.35;100.00
64243;BME280;50573;51.512;5.386;2023-08-30T08:31:23;168354.53;;;14.43;100.00
64243;BME280;50573;51.512;5.386;2023-08-30T08:41:35;168402.38;;;14.61;100.00
64243;BME280;50573;51.512;5.386;2023-08-30T08:51:41;168410.34;;;14.64;100.00
64243;BME280;50573;51.512;5.386;2023-08-30T09:01:45;168459.53;;;14.82;100.00
64243;BME280;50573;51.512;5.386;2023-08-30T09:11:54;168611.09;;;15.40;100.00
64243;BME280;50573;51.512;5.386;2023-08-30T09:21:58;168805.25;;;16.13;100.00
64243;BME280;50573;51.512;5.386;2023-08-30T09:32:04;168822.53;;;16.19;100.00
64243;BME280;50573;51.512;5.386;2023-08-30T09:42:08;168907.69;;;16.51;100.00
64243;BME280;50573;51.512;5.386;2023-08-30T09:52:27;169004.81;;;16.88;100.00
64243;BME280;50573;51.512;5.386;2023-08-30T10:02:32;169075.34;;;17.15;100.00
64243;BME280;50573;51.512;5.386;2023-08-30T10:12:39;169293.66;;;17.97;100.00
64243;BME280;50573;51.512;5.386;2023-08-30T10:22:54;169410.91;;;18.41;100.00
64243;BME280;50573;51.512;5.386;2023-08-30T10:33:11;169493.44;;;18.72;100.00
64243;BME280;50573;51.512;5.386;2023-08-30T10:43:15;169633.34;;;19.25;100.00
64243;BME280;50573;51.512;5.386;2023-08-30T10:53:29;169760.00;;;19.73;100.00
64243;BME280;50573;51.512;5.386;2023-08-30T11:03:32;169978.63;;;20.55;100.00
64243;BME280;50573;51.512;5.386;2023-08-30T11:13:37;170087.94;;;20.96;100.00
64243;BME280;50573;51.512;5.386;2023-08-30T11:23:43;170173.41;;;21.28;92.16
64243;BME280;50573;51.512;5.386;2023-08-30T11:33:52;170027.94;;;20.74;88.90
64243;BME280;50573;51.512;5.386;2023-08-30T11:44:00;169969.31;;;20.51;90.85
64243;BME280;50573;51.512;5.386;2023-08-30T11:54:08;169936.00;;;20.39;84.49
64243;BME280;50573;51.512;5.386;2023-08-30T12:04:14;170136.03;;;21.14;83.39
64243;BME280;50573;51.512;5.386;2023-08-30T12:14:34;170184.03;;;21.32;77.94
64243;BME280;50573;51.512;5.386;2023-08-30T12:24:43;170071.97;;;20.90;76.47
64243;BME280;50573;51.512;5.386;2023-08-30T12:34:48;170013.31;;;20.68;79.73
64243;BME280;50573;51.512;5.386;2023-08-30T12:44:51;170007.97;;;20.66;81.45
64243;BME280;50573;51.512;5.386;2023-08-30T12:54:56;169989.28;;;20.59;78.66
64243;BME280;50573;51.512;5.386;2023-08-30T13:05:08;170001.31;;;20.63;76.75
64243;BME280;50573;51.512;5.386;2023-08-30T13:15:14;170050.63;;;20.82;71.80
64243;BME280;50573;51.512;5.386;2023-08-30T13:25:22;170120.03;;;21.08;71.75
64243;BME280;50573;51.512;5.386;2023-08-30T13:35:30;170204.03;;;21.40;67.83
64243;BME280;50573;51.512;5.386;2023-08-30T13:45:37;170104.03;;;21.02;66.42
64243;BME280;50573;51.512;5.386;2023-08-30T13:55:49;169982.63;;;20.56;68.93
64243;BME280;50573;51.512;5.386;2023-08-30T14:05:55;170045.28;;;20.80;66.60
64243;BME280;50573;51.512;5.386;2023-08-30T14:16:06;170034.66;;;20.76;68.17
64243;BME280;50573;51.512;5.386;2023-08-30T14:26:10;169858.63;;;20.10;73.86
64243;BME280;50573;51.512;5.386;2023-08-30T14:36:21;169941.28;;;20.41;70.40
64243;BME280;50573;51.512;5.386;2023-08-30T14:46:27;169925.28;;;20.35;73.31
64243;BME280;50573;51.512;5.386;2023-08-30T14:56:36;169913.31;;;20.30;74.47
64243;BME280;50573;51.512;5.386;2023-08-30T15:06:45;170162.72;;;21.24;67.15
64243;BME280;50573;51.512;5.386;2023-08-30T15:16:53;170105.34;;;21.03;66.17
64243;BME280;50573;51.512;5.386;2023-08-30T15:27:03;169857.28;;;20.09;72.66
64243;BME280;50573;51.512;5.386;2023-08-30T15:37:11;169895.97;;;20.24;75.07
64243;BME280;50573;51.512;5.386;2023-08-30T15:47:17;169850.63;;;20.07;74.82
64243;BME280;50573;51.512;5.386;2023-08-30T15:57:28;169684.00;;;19.44;72.77
64243;BME280;50573;51.512;5.386;2023-08-30T16:07:34;169573.38;;;19.02;68.63
64243;BME280;50573;51.512;5.386;2023-08-30T16:17:47;169526.78;;;18.85;71.56
64243;BME280;50573;51.512;5.386;2023-08-30T16:27:51;169472.13;;;18.64;75.63
64243;BME280;50573;51.512;5.386;2023-08-30T16:37:58;169450.81;;;18.56;77.34
64243;BME280;50573;51.512;5.386;2023-08-30T16:48:07;169417.53;;;18.44;77.08
64243;BME280;50573;51.512;5.386;2023-08-30T16:58:17;169409.56;;;18.41;78.47
64243;BME280;50573;51.512;5.386;2023-08-30T17:08:23;169405.56;;;18.39;76.57
64243;BME280;50573;51.512;5.386;2023-08-30T17:18:32;169454.81;;;18.58;73.51
64243;BME280;50573;51.512;5.386;2023-08-30T17:28:39;169342.91;;;18.16;75.48
64243;BME280;50573;51.512;5.386;2023-08-30T17:38:51;169225.78;;;17.71;78.29
64243;BME280;50573;51.512;5.386;2023-08-30T17:48:55;169124.56;;;17.33;81.03
64243;BME280;50573;51.512;5.386;2023-08-30T17:59:07;169011.47;;;16.91;84.24
64243;BME280;50573;51.512;5.386;2023-08-30T18:09:14;168921.00;;;16.56;85.95
64243;BME280;50573;51.512;5.386;2023-08-30T18:19:25;168834.50;;;16.24;88.62
64243;BME280;50573;51.512;5.386;2023-08-30T18:29:28;168761.34;;;15.96;90.82
64243;BME280;50573;51.512;5.386;2023-08-30T18:39:33;168692.19;;;15.70;93.07
64243;BME280;50573;51.512;5.386;2023-08-30T18:49:37;168652.31;;;15.55;94.55
64243;BME280;50573;51.512;5.386;2023-08-30T18:59:42;168639.00;;;15.50;97.21
64243;BME280;50573;51.512;5.386;2023-08-30T19:09:45;168662.97;;;15.59;97.53
64243;BME280;50573;51.512;5.386;2023-08-30T19:19:49;168655.00;;;15.56;98.96
64243;BME280;50573;51.512;5.386;2023-08-30T19:29:52;168655.00;;;15.56;100.00
64243;BME280;50573;51.512;5.386;2023-08-30T19:39:57;168650.97;;;15.55;100.00
64243;BME280;50573;51.512;5.386;2023-08-30T19:50:02;168595.06;;;15.33;100.00
64243;BME280;50573;51.512;5.386;2023-08-30T20:00:07;168559.22;;;15.20;100.00
64243;BME280;50573;51.512;5.386;2023-08-30T20:10:14;168532.63;;;15.10;100.00
64243;BME280;50573;51.512;5.386;2023-08-30T20:20:18;168499.41;;;14.97;100.00
64243;BME280;50573;51.512;5.386;2023-08-30T20:30:21;168410.34;;;14.64;100.00
64243;BME280;50573;51.512;5.386;2023-08-30T20:40:26;168297.41;;;14.21;100.00
64243;BME280;50573;51.512;5.386;2023-08-30T20:50:29;168200.41;;;13.84;100.00
64243;BME280;50573;51.512;5.386;2023-08-30T21:00:33;168142.00;;;13.62;100.00
64243;BME280;50573;51.512;5.386;2023-08-30T21:10:36;168092.84;;;13.44;100.00
64243;BME280;50573;51.512;5.386;2023-08-30T21:20:41;168064.97;;;13.33;100.00
64243;BME280;50573;51.512;5.386;2023-08-30T21:30:44;168035.78;;;13.22;100.00
64243;BME280;50573;51.512;5.386;2023-08-30T21:40:49;167993.31;;;13.06;100.00
64243;BME280;50573;51.512;5.386;2023-08-30T21:50:53;167937.50;;;12.85;100.00
64243;BME280;50573;51.512;5.386;2023-08-30T22:00:58;167889.72;;;12.67;100.00
64243;BME280;50573;51.512;5.386;2023-08-30T22:11:06;167835.34;;;12.46;100.00
64243;BME280;50573;51.512;5.386;2023-08-30T22:21:11;167799.50;;;12.33;100.00
64243;BME280;50573;51.512;5.386;2023-08-30T22:31:14;167783.59;;;12.27;100.00
64243;BME280;50573;51.512;5.386;2023-08-30T22:41:18;167804.81;;;12.35;100.00
64243;BME280;50573;51.512;5.386;2023-08-30T22:51:21;167845.91;;;12.50;100.00
64243;BME280;50573;51.512;5.386;2023-08-30T23:01:27;167872.47;;;12.61;100.00
64243;BME280;50573;51.512;5.386;2023-08-30T23:11:31;167863.19;;;12.57;100.00
64243;BME280;50573;51.512;5.386;2023-08-30T23:21:35;167834.00;;;12.46;100.00
64243;BME280;50573;51.512;5.386;2023-08-30T23:31:38;167808.78;;;12.36;100.00
64243;BME280;50573;51.512;5.386;2023-08-30T23:41:43;167798.16;;;12.32;100.00
64243;BME280;50573;51.512;5.386;2023-08-30T23:51:46;167775.59;;;12.24;100.00
